Time;durP1;ratioP1;P1;durP2;ratioP2;P2;SDS_P1;SDS_P2;PMS_P1;PMS_P2;Temp;Humidity;BMP_temperature;BMP_pressure;BME280_temperature;BME280_humidity;BME280_pressure;Samples;Min_cycle;Max_cycle;Signal;HPM_P1;HPM_P2
2023/05/30 00:00:47;;;;;;;9.40;3.58;;;11.40;71.40;;;;;;5035226;28;20040;-69
2023/05/30 00:03:12;;;;;;;8.95;3.10;;;11.40;71.40;;;;;;5050384;28;20052;-69
2023/05/30 00:05:38;;;;;;;16.83;3.75;;;11.40;71.40;;;;;;5042777;28;20040;-72
2023/05/30 00:08:04;;;;;;;10.20;3.70;;;11.40;71.50;;;;;;5046358;28;20110;-70
2023/05/30 00:10:29;;;;;;;11.40;3.20;;;11.40;71.60;;;;;;5029445;28;20047;-70
2023/05/30 00:12:55;;;;;;;11.07;3.30;;;11.40;71.60;;;;;;5049254;28;20102;-70
2023/05/30 00:15:21;;;;;;;13.60;3.38;;;11.40;71.40;;;;;;5051301;28;20041;-70
2023/05/30 00:17:47;;;;;;;11.43;3.08;;;11.40;71.40;;;;;;5036568;28;20044;-71
2023/05/30 00:20:13;;;;;;;13.05;3.53;;;11.40;71.40;;;;;;5041952;28;20037;-71
2023/05/30 00:22:41;;;;;;;12.68;3.25;;;11.40;71.70;;;;;;5044711;28;20683;-69
2023/05/30 00:25:09;;;;;;;8.00;2.65;;;11.40;71.60;;;;;;5037549;28;20199;-70
2023/05/30 00:27:35;;;;;;;13.23;3.50;;;11.40;71.60;;;;;;5030994;28;20045;-70
2023/05/30 00:30:01;;;;;;;10.73;3.20;;;11.40;72.10;;;;;;5024153;28;20124;-70
2023/05/30 00:32:26;;;;;;;10.75;4.60;;;11.40;71.40;;;;;;5046600;28;20041;-70
2023/05/30 00:34:52;;;;;;;11.13;3.45;;;11.50;71.40;;;;;;5050419;28;20037;-70
2023/05/30 00:37:17;;;;;;;7.80;3.22;;;11.40;71.30;;;;;;5046079;28;20045;-68
2023/05/30 00:39:43;;;;;;;14.23;3.80;;;11.40;71.40;;;;;;5024668;28;20037;-69
2023/05/30 00:42:08;;;;;;;13.43;4.35;;;11.40;71.10;;;;;;5031393;28;20045;-70
2023/05/30 00:44:34;;;;;;;13.13;4.25;;;11.50;71.10;;;;;;5036950;28;20034;-70
2023/05/30 00:47:00;;;;;;;8.30;3.50;;;11.50;70.80;;;;;;5014565;28;20057;-69
2023/05/30 00:49:26;;;;;;;12.05;3.67;;;11.50;70.70;;;;;;5062141;28;20116;-70
2023/05/30 00:51:53;;;;;;;10.00;3.95;;;11.40;70.60;;;;;;5048530;28;20060;-70
2023/05/30 00:54:19;;;;;;;10.98;3.50;;;11.40;70.60;;;;;;5044733;28;20045;-70
2023/05/30 00:56:46;;;;;;;13.60;3.35;;;11.40;70.90;;;;;;5038692;28;20041;-70
2023/05/30 00:59:11;;;;;;;10.18;3.67;;;11.40;70.70;;;;;;5049789;28;20041;-69
2023/05/30 01:01:37;;;;;;;8.98;3.15;;;11.40;70.60;;;;;;5046389;28;20037;-70
2023/05/30 01:04:03;;;;;;;7.85;4.38;;;11.40;70.50;;;;;;5043471;28;20087;-70
2023/05/30 01:06:29;;;;;;;9.52;3.38;;;11.40;70.40;;;;;;5028783;28;20065;-70
2023/05/30 01:08:58;;;;;;;7.35;3.38;;;11.40;70.40;;;;;;5027805;28;20047;-70
2023/05/30 01:11:41;;;;;;;9.88;4.07;;;11.40;70.40;;;;;;5051801;28;20420;-68
2023/05/30 01:14:25;;;;;;;8.68;3.67;;;11.40;71.00;;;;;;5027676;28;20465;-70
2023/05/30 01:17:02;;;;;;;9.85;3.55;;;11.40;70.90;;;;;;5040327;28;20094;-69
2023/05/30 01:19:54;;;;;;;9.95;3.40;;;11.40;70.40;;;;;;5044815;28;20226;-69
2023/05/30 01:23:05;;;;;;;9.25;3.50;;;11.40;70.60;;;;;;5030217;28;20047;-70
2023/05/30 01:25:55;;;;;;;8.18;3.40;;;11.30;71.20;;;;;;5037996;28;20037;-67
2023/05/30 01:28:24;;;;;;;7.18;2.80;;;11.30;70.30;;;;;;5040411;28;20033;-70
2023/05/30 01:30:52;;;;;;;6.90;2.60;;;11.30;70.30;;;;;;5033793;28;20083;-70
2023/05/30 01:33:21;;;;;;;10.43;3.15;;;11.30;70.30;;;;;;5043732;28;20047;-71
2023/05/30 01:35:47;;;;;;;6.05;2.42;;;11.30;70.30;;;;;;5045968;28;20041;-70
2023/05/30 01:38:14;;;;;;;8.38;3.22;;;11.30;70.30;;;;;;5029106;28;20048;-69
2023/05/30 01:40:42;;;;;;;10.95;3.60;;;11.30;70.30;;;;;;5042920;28;20080;-70
2023/05/30 01:43:28;;;;;;;9.77;2.80;;;11.30;70.20;;;;;;5041749;28;20041;-70
2023/05/30 01:46:26;;;;;;;8.40;3.08;;;11.30;70.20;;;;;;5043390;28;20048;-71
2023/05/30 01:48:59;;;;;;;11.27;3.63;;;11.30;70.60;;;;;;5023997;28;20072;-70
2023/05/30 01:51:36;;;;;;;9.70;3.08;;;11.20;70.10;;;;;;5008308;28;20131;-70
2023/05/30 01:54:04;;;;;;;8.23;3.00;;;11.20;70.30;;;;;;5044401;28;20045;-69
2023/05/30 01:56:31;;;;;;;10.77;3.20;;;11.20;70.20;;;;;;5038796;28;20040;-70
2023/05/30 01:58:59;;;;;;;8.10;3.45;;;11.30;70.30;;;;;;5029761;28;20079;-70
2023/05/30 02:01:28;;;;;;;8.10;3.20;;;11.30;70.30;;;;;;5041902;28;20047;-68
2023/05/30 02:03:55;;;;;;;10.35;3.38;;;11.30;70.40;;;;;;5043606;28;20049;-69
2023/05/30 02:06:22;;;;;;;8.35;3.28;;;11.20;70.30;;;;;;5040615;28;20036;-70
2023/05/30 02:08:47;;;;;;;8.85;3.03;;;11.20;70.20;;;;;;5043586;28;20457;-70
2023/05/30 02:11:13;;;;;;;8.55;3.33;;;11.30;70.20;;;;;;5025927;28;20079;-70
2023/05/30 02:13:38;;;;;;;8.75;3.03;;;11.30;70.30;;;;;;5033387;28;20045;-70
2023/05/30 02:16:05;;;;;;;12.30;3.45;;;11.20;70.40;;;;;;5043590;28;20355;-69
2023/05/30 02:18:31;;;;;;;11.02;3.40;;;11.30;70.40;;;;;;5027924;28;20040;-70
2023/05/30 02:20:56;;;;;;;9.18;3.42;;;11.20;70.50;;;;;;5039506;28;20733;-70
2023/05/30 02:23:22;;;;;;;6.43;3.05;;;11.30;70.50;;;;;;5041749;28;20045;-71
2023/05/30 02:25:47;;;;;;;10.20;3.40;;;11.20;70.60;;;;;;5043758;28;20037;-70
2023/05/30 02:28:13;;;;;;;18.27;4.05;;;11.20;70.40;;;;;;5046347;28;20113;-70
2023/05/30 02:30:39;;;;;;;11.07;3.67;;;11.20;70.50;;;;;;5034763;28;20082;-70
2023/05/30 02:33:04;;;;;;;7.03;3.25;;;11.20;70.40;;;;;;5041746;28;20507;-69
2023/05/30 02:35:30;;;;;;;10.27;3.47;;;11.10;70.30;;;;;;5031532;28;20089;-71
2023/05/30 02:37:55;;;;;;;9.30;3.30;;;11.20;70.30;;;;;;5041872;28;20409;-70
2023/05/30 02:40:21;;;;;;;8.20;3.17;;;11.20;70.40;;;;;;5041437;28;20106;-69
2023/05/30 02:42:47;;;;;;;11.20;3.38;;;11.20;70.40;;;;;;5011744;28;20343;-70
2023/05/30 02:45:12;;;;;;;9.98;3.42;;;11.20;70.40;;;;;;5047116;28;20044;-69
2023/05/30 02:47:39;;;;;;;10.52;3.97;;;11.20;70.30;;;;;;5037642;28;20060;-70
2023/05/30 02:50:05;;;;;;;15.90;3.95;;;11.20;70.40;;;;;;5038239;28;20385;-68
2023/05/30 02:52:31;;;;;;;7.57;2.78;;;11.20;70.50;;;;;;5024257;28;20201;-69
2023/05/30 02:54:56;;;;;;;9.57;3.28;;;11.10;70.40;;;;;;5037333;28;20548;-68
2023/05/30 02:57:22;;;;;;;8.18;3.58;;;11.10;70.40;;;;;;5040757;28;20239;-70
2023/05/30 02:59:48;;;;;;;7.65;2.78;;;11.20;70.30;;;;;;5042963;28;20040;-69
2023/05/30 03:02:13;;;;;;;6.13;2.90;;;11.10;70.30;;;;;;5040704;28;20136;-69
2023/05/30 03:04:45;;;;;;;7.10;3.15;;;11.10;70.50;;;;;;5024587;28;20033;-69
2023/05/30 03:07:17;;;;;;;13.38;3.17;;;11.10;70.50;;;;;;5041354;28;20033;-69
2023/05/30 03:09:43;;;;;;;11.02;3.58;;;11.20;70.50;;;;;;5046949;28;20044;-70
2023/05/30 03:12:09;;;;;;;9.23;3.47;;;11.20;70.60;;;;;;5044154;28;20097;-70
2023/05/30 03:14:34;;;;;;;7.97;3.80;;;11.20;70.60;;;;;;5027945;28;20037;-70
2023/05/30 03:17:00;;;;;;;9.40;3.72;;;11.20;70.70;;;;;;5040644;28;20202;-69
2023/05/30 03:19:25;;;;;;;10.35;3.83;;;11.20;70.80;;;;;;5042460;28;20033;-69
2023/05/30 03:21:51;;;;;;;16.52;4.10;;;11.20;70.70;;;;;;5042626;28;20409;-69
2023/05/30 03:24:17;;;;;;;10.02;3.85;;;11.20;70.70;;;;;;5042279;28;20096;-69
2023/05/30 03:26:42;;;;;;;7.53;3.17;;;11.20;70.90;;;;;;5042484;28;20072;-70
2023/05/30 03:29:08;;;;;;;8.18;3.25;;;11.20;70.90;;;;;;5035851;28;20048;-69
2023/05/30 03:31:35;;;;;;;9.85;3.30;;;11.20;71.00;;;;;;5040612;28;20033;-69
2023/05/30 03:34:01;;;;;;;13.40;3.70;;;11.20;71.20;;;;;;5037302;28;20047;-70
2023/05/30 03:36:27;;;;;;;10.13;4.40;;;11.10;71.20;;;;;;5031905;28;20903;-70
2023/05/30 03:38:56;;;;;;;10.65;3.75;;;11.10;71.40;;;;;;5034010;28;20037;-68
2023/05/30 03:41:22;;;;;;;8.90;3.70;;;11.10;71.60;;;;;;5026463;28;20116;-70
2023/05/30 03:43:48;;;;;;;9.77;3.58;;;11.10;71.60;;;;;;5017459;28;20190;-68
2023/05/30 03:46:19;;;;;;;6.95;3.10;;;11.00;71.80;;;;;;5040058;28;20046;-69
2023/05/30 03:48:47;;;;;;;13.52;3.80;;;11.00;71.90;;;;;;5027461;28;20045;-70
2023/05/30 03:51:13;;;;;;;9.95;3.42;;;11.00;71.90;;;;;;5043561;28;20068;-69
2023/05/30 03:53:39;;;;;;;8.57;3.28;;;11.00;72.00;;;;;;5034500;28;20551;-69
2023/05/30 03:56:06;;;;;;;12.70;3.92;;;11.00;72.10;;;;;;5025126;28;20111;-69
2023/05/30 03:58:32;;;;;;;8.68;3.70;;;11.10;72.20;;;;;;5026079;28;20133;-69
2023/05/30 04:01:00;;;;;;;10.93;3.40;;;11.10;72.10;;;;;;5036568;28;20122;-70
2023/05/30 04:03:26;;;;;;;9.77;3.17;;;11.10;72.20;;;;;;5042307;28;20052;-69
2023/05/30 04:05:53;;;;;;;12.02;3.63;;;11.10;72.10;;;;;;5041727;28;20037;-70
2023/05/30 04:08:18;;;;;;;10.77;3.78;;;11.20;72.20;;;;;;5045597;28;20041;-69
2023/05/30 04:10:44;;;;;;;8.25;3.55;;;11.20;72.00;;;;;;5048770;28;20028;-68
2023/05/30 04:13:10;;;;;;;7.63;3.08;;;11.30;72.10;;;;;;5048084;28;20049;-70
2023/05/30 04:15:35;;;;;;;10.18;3.13;;;11.30;72.00;;;;;;5050040;28;20481;-70
2023/05/30 04:18:01;;;;;;;8.82;3.78;;;11.40;72.00;;;;;;5047410;28;20045;-69
2023/05/30 04:20:27;;;;;;;6.57;3.35;;;11.40;71.90;;;;;;5045322;28;20116;-68
2023/05/30 04:22:53;;;;;;;9.10;5.18;;;11.40;72.00;;;;;;5041694;28;20120;-70
2023/05/30 04:25:19;;;;;;;10.70;3.72;;;11.50;72.00;;;;;;5043127;28;20077;-69
2023/05/30 04:27:46;;;;;;;25.75;4.38;;;11.50;72.00;;;;;;5029248;28;20041;-69
2023/05/30 04:30:12;;;;;;;14.23;3.83;;;11.60;72.00;;;;;;5030284;28;20048;-70
2023/05/30 04:32:39;;;;;;;11.27;4.57;;;11.60;71.90;;;;;;5047528;28;20474;-71
2023/05/30 04:35:05;;;;;;;13.23;3.22;;;11.60;72.10;;;;;;5048107;28;20045;-70
2023/05/30 04:37:33;;;;;;;6.55;3.38;;;11.70;72.10;;;;;;5034659;28;20048;-67
2023/05/30 04:39:59;;;;;;;12.15;4.05;;;11.70;71.90;;;;;;5034062;28;20121;-69
2023/05/30 04:42:26;;;;;;;11.70;3.75;;;11.70;71.90;;;;;;5039210;28;20102;-69
2023/05/30 04:44:53;;;;;;;13.57;3.75;;;11.70;71.90;;;;;;5049668;28;20049;-69
2023/05/30 04:47:21;;;;;;;13.50;3.30;;;11.80;71.80;;;;;;5047223;28;20187;-69
2023/05/30 04:49:47;;;;;;;13.73;4.07;;;11.80;71.90;;;;;;5046703;28;20064;-70
2023/05/30 04:52:12;;;;;;;7.00;3.63;;;11.90;71.90;;;;;;5030581;28;20065;-70
2023/05/30 04:54:38;;;;;;;10.70;4.00;;;11.90;71.80;;;;;;5035644;28;20128;-70
2023/05/30 04:57:04;;;;;;;12.57;4.07;;;12.00;71.80;;;;;;5033328;28;20045;-69
2023/05/30 04:59:30;;;;;;;11.20;4.32;;;12.00;71.70;;;;;;5056200;28;20540;-69
2023/05/30 05:01:56;;;;;;;11.65;3.80;;;12.00;71.90;;;;;;5036709;28;20034;-70
2023/05/30 05:04:22;;;;;;;11.50;3.50;;;12.10;71.80;;;;;;5045439;28;20059;-70
2023/05/30 05:06:47;;;;;;;7.90;3.38;;;12.10;71.80;;;;;;5023642;28;20124;-69
2023/05/30 05:09:13;;;;;;;9.55;3.50;;;12.10;71.80;;;;;;5038897;28;20104;-69
2023/05/30 05:11:39;;;;;;;9.05;4.13;;;12.20;71.70;;;;;;5041202;28;20098;-70
2023/05/30 05:14:05;;;;;;;16.15;4.10;;;12.20;71.70;;;;;;5046084;28;20112;-69
2023/05/30 05:16:30;;;;;;;8.27;2.75;;;12.30;71.70;;;;;;5034469;28;20152;-70
2023/05/30 05:18:56;;;;;;;9.52;4.03;;;12.30;71.60;;;;;;5034530;28;20057;-69
2023/05/30 05:21:21;;;;;;;9.13;3.30;;;12.30;71.80;;;;;;5036796;28;20118;-69
2023/05/30 05:23:47;;;;;;;6.70;3.28;;;12.30;71.30;;;;;;5031945;28;20129;-69
2023/05/30 05:26:13;;;;;;;8.13;3.15;;;12.30;71.30;;;;;;5041494;28;20041;-68
2023/05/30 05:28:38;;;;;;;13.77;3.30;;;12.30;71.20;;;;;;5046682;28;20047;-69
2023/05/30 05:31:04;;;;;;;8.40;3.22;;;12.40;71.20;;;;;;5044569;28;20416;-69
2023/05/30 05:33:30;;;;;;;8.27;3.45;;;12.40;71.20;;;;;;5043487;28;20045;-70
2023/05/30 05:35:55;;;;;;;9.63;3.08;;;12.40;71.20;;;;;;5044313;28;20162;-69
2023/05/30 05:38:21;;;;;;;13.38;3.60;;;12.40;71.20;;;;;;5043008;28;20076;-69
2023/05/30 05:40:46;;;;;;;13.75;3.60;;;12.40;71.10;;;;;;5043216;28;20056;-69
2023/05/30 05:43:12;;;;;;;8.95;3.65;;;12.50;71.20;;;;;;5045242;28;20140;-70
2023/05/30 05:45:38;;;;;;;10.02;3.65;;;12.50;71.10;;;;;;5042894;28;20568;-70
2023/05/30 05:48:04;;;;;;;7.97;3.38;;;12.50;71.10;;;;;;5024025;28;20484;-70
2023/05/30 05:50:30;;;;;;;8.95;3.95;;;12.50;71.10;;;;;;5043325;28;20370;-69
2023/05/30 05:52:56;;;;;;;15.07;3.30;;;12.50;71.20;;;;;;5033425;28;20538;-70
2023/05/30 05:55:22;;;;;;;9.02;4.07;;;12.50;71.30;;;;;;5039563;28;20041;-69
2023/05/30 05:57:47;;;;;;;14.95;4.10;;;12.50;71.40;;;;;;5037730;28;20132;-70
2023/05/30 06:00:13;;;;;;;8.38;3.33;;;12.50;71.40;;;;;;5038046;28;20048;-69
2023/05/30 06:02:39;;;;;;;13.20;3.47;;;12.50;71.30;;;;;;5041209;28;20041;-69
2023/05/30 06:05:06;;;;;;;10.57;3.30;;;12.50;71.40;;;;;;5047607;28;20083;-69
2023/05/30 06:07:32;;;;;;;11.98;3.35;;;12.60;71.60;;;;;;5044647;28;20064;-70
2023/05/30 06:09:58;;;;;;;11.63;3.60;;;12.50;71.70;;;;;;5032797;28;20537;-69
2023/05/30 06:12:23;;;;;;;12.40;3.25;;;12.50;71.70;;;;;;5024068;28;20116;-70
2023/05/30 06:14:49;;;;;;;11.85;3.13;;;12.50;71.80;;;;;;5044204;28;20037;-69
2023/05/30 06:17:15;;;;;;;8.27;3.15;;;12.50;72.00;;;;;;5030002;28;20068;-69
2023/05/30 06:19:40;;;;;;;13.15;3.25;;;12.60;72.10;;;;;;5048323;28;20055;-69
2023/05/30 06:22:07;;;;;;;9.60;3.72;;;12.60;72.10;;;;;;5044591;28;20119;-69
2023/05/30 06:24:33;;;;;;;9.95;3.50;;;12.60;72.40;;;;;;5042744;28;20052;-70
2023/05/30 06:26:59;;;;;;;11.63;3.20;;;12.60;72.40;;;;;;5031869;28;20045;-71
2023/05/30 06:29:25;;;;;;;8.38;3.17;;;12.60;72.50;;;;;;5027161;28;20082;-70
2023/05/30 06:31:50;;;;;;;12.48;3.97;;;12.50;72.70;;;;;;5042077;28;20036;-69
2023/05/30 06:34:16;;;;;;;10.93;2.90;;;12.60;72.80;;;;;;5034948;28;20576;-70
2023/05/30 06:36:41;;;;;;;10.30;3.38;;;12.60;73.20;;;;;;5034711;28;20037;-69
2023/05/30 06:39:14;;;;;;;9.25;3.38;;;12.60;73.30;;;;;;5039766;28;20122;-70
2023/05/30 06:41:44;;;;;;;7.97;2.90;;;12.60;73.20;;;;;;5038373;28;20533;-70
2023/05/30 06:44:09;;;;;;;9.00;2.95;;;12.70;73.30;;;;;;5040711;28;20044;-69
2023/05/30 06:46:35;;;;;;;14.57;3.15;;;12.70;73.30;;;;;;5045201;28;20071;-69
2023/05/30 06:49:01;;;;;;;8.95;2.72;;;12.70;73.20;;;;;;5043309;28;20057;-70
2023/05/30 06:51:27;;;;;;;7.05;2.80;;;12.70;73.20;;;;;;5041163;28;21133;-70
2023/05/30 06:53:52;;;;;;;6.32;2.85;;;12.70;73.30;;;;;;5041763;28;20040;-69
2023/05/30 06:56:18;;;;;;;10.65;2.92;;;12.70;73.20;;;;;;5045445;28;20593;-70
2023/05/30 06:58:44;;;;;;;8.27;2.63;;;12.70;73.20;;;;;;5046235;28;20480;-69
2023/05/30 07:01:10;;;;;;;6.55;3.00;;;12.70;73.20;;;;;;5023277;28;20391;-70
2023/05/30 07:03:35;;;;;;;9.82;3.28;;;12.80;73.40;;;;;;5042547;28;20048;-69
2023/05/30 07:06:02;;;;;;;7.97;2.95;;;12.80;73.40;;;;;;5044762;28;20097;-70
2023/05/30 07:08:27;;;;;;;6.75;3.65;;;12.80;73.40;;;;;;5027456;28;20422;-68
2023/05/30 07:10:53;;;;;;;8.60;2.88;;;12.90;73.30;;;;;;5042902;28;20036;-70
2023/05/30 07:13:18;;;;;;;8.52;2.85;;;12.90;73.40;;;;;;5046441;28;20041;-70
2023/05/30 07:15:44;;;;;;;9.43;3.20;;;12.90;73.40;;;;;;5047782;28;20083;-69
2023/05/30 07:18:10;;;;;;;10.98;3.30;;;12.90;73.50;;;;;;5055072;28;20062;-69
2023/05/30 07:20:36;;;;;;;5.78;3.10;;;12.90;73.50;;;;;;5043425;28;20044;-68
2023/05/30 07:23:01;;;;;;;8.00;2.97;;;12.90;73.40;;;;;;5028094;28;20508;-71
2023/05/30 07:25:27;;;;;;;8.75;3.00;;;12.90;73.40;;;;;;5046340;28;20122;-71
2023/05/30 07:27:53;;;;;;;6.05;2.55;;;12.90;73.60;;;;;;5035253;28;20037;-70
2023/05/30 07:30:18;;;;;;;7.78;2.60;;;13.00;73.60;;;;;;5041696;28;20041;-69
2023/05/30 07:32:44;;;;;;;5.75;2.35;;;13.00;73.70;;;;;;5047074;28;20848;-70
2023/05/30 07:35:09;;;;;;;8.05;2.50;;;13.00;73.60;;;;;;5044142;28;20366;-68
2023/05/30 07:37:36;;;;;;;6.15;2.50;;;13.10;73.50;;;;;;5044085;28;20096;-68
2023/05/30 07:40:05;;;;;;;5.72;2.95;;;13.10;73.70;;;;;;5042775;28;20052;-70
2023/05/30 07:42:31;;;;;;;5.57;2.72;;;13.00;73.80;;;;;;5041229;28;20080;-69
2023/05/30 07:44:56;;;;;;;5.07;2.45;;;13.00;73.80;;;;;;5048023;28;20029;-69
2023/05/30 07:47:22;;;;;;;5.80;2.70;;;12.90;74.00;;;;;;5050477;28;20108;-70
2023/05/30 07:49:48;;;;;;;7.40;2.42;;;12.90;74.10;;;;;;5046205;28;20116;-69
2023/05/30 07:52:13;;;;;;;5.70;2.72;;;12.90;74.30;;;;;;5045143;28;20049;-70
2023/05/30 07:54:39;;;;;;;5.22;2.40;;;12.90;74.80;;;;;;5042745;28;20334;-70
2023/05/30 07:57:06;;;;;;;5.00;2.00;;;12.90;75.00;;;;;;5043876;28;20049;-70
2023/05/30 07:59:32;;;;;;;6.43;2.63;;;12.90;75.10;;;;;;5051046;28;20060;-70
2023/05/30 08:01:57;;;;;;;5.32;2.05;;;12.90;75.30;;;;;;5043690;28;20102;-69
2023/05/30 08:04:23;;;;;;;5.55;2.05;;;12.90;75.50;;;;;;5048718;28;20040;-70
2023/05/30 08:06:49;;;;;;;3.60;1.67;;;12.90;75.80;;;;;;5042770;28;20035;-70
2023/05/30 08:09:15;;;;;;;6.13;1.75;;;13.00;75.90;;;;;;5036050;28;20452;-70
2023/05/30 08:11:40;;;;;;;4.15;2.10;;;12.90;76.10;;;;;;5013998;28;20045;-70
2023/05/30 08:14:06;;;;;;;4.88;1.80;;;13.00;76.30;;;;;;5049196;28;20206;-70
2023/05/30 08:16:32;;;;;;;6.40;1.85;;;13.00;76.10;;;;;;5031520;28;20071;-70
2023/05/30 08:18:58;;;;;;;4.28;1.80;;;13.10;76.10;;;;;;5035925;28;20050;-69
2023/05/30 08:21:24;;;;;;;5.10;2.20;;;13.10;75.90;;;;;;5029112;28;20079;-69
2023/05/30 08:23:49;;;;;;;4.53;1.80;;;13.30;75.70;;;;;;5019255;28;20454;-69
2023/05/30 08:26:16;;;;;;;4.38;2.25;;;13.40;75.40;;;;;;5049923;28;20037;-69
2023/05/30 08:28:42;;;;;;;6.22;1.88;;;13.40;75.10;;;;;;5049109;28;20374;-69
2023/05/30 08:31:08;;;;;;;2.47;1.90;;;13.60;74.80;;;;;;5043390;28;20053;-69
2023/05/30 08:33:35;;;;;;;7.55;1.98;;;13.80;74.50;;;;;;5048259;28;20040;-69
2023/05/30 08:36:01;;;;;;;3.45;2.10;;;13.90;74.20;;;;;;5038251;28;20215;-69
2023/05/30 08:38:26;;;;;;;2.90;1.73;;;13.90;73.90;;;;;;5028985;28;20186;-68
2023/05/30 08:40:53;;;;;;;4.28;1.70;;;13.90;74.30;;;;;;5050363;28;20574;-70
2023/05/30 08:43:19;;;;;;;2.55;1.60;;;13.90;73.40;;;;;;5043030;28;20170;-69
2023/05/30 08:45:45;;;;;;;2.28;1.65;;;13.90;73.40;;;;;;5031930;28;20242;-68
2023/05/30 08:48:13;;;;;;;3.80;1.70;;;13.90;73.30;;;;;;5028667;28;20033;-69
2023/05/30 08:50:40;;;;;;;5.20;1.80;;;13.90;73.10;;;;;;5028788;28;20037;-68
2023/05/30 08:53:12;;;;;;;6.43;1.92;;;14.00;72.90;;;;;;5040407;28;20040;-70
2023/05/30 08:55:46;;;;;;;4.90;1.65;;;14.10;72.60;;;;;;5047606;28;20041;-70
2023/05/30 08:58:22;;;;;;;3.72;1.40;;;14.10;72.60;;;;;;5063260;28;20052;-70
2023/05/30 09:00:49;;;;;;;2.53;1.45;;;14.20;72.40;;;;;;5070024;28;20044;-70
2023/05/30 09:03:16;;;;;;;3.97;1.45;;;14.10;72.50;;;;;;5067886;28;20474;-70
2023/05/30 09:05:42;;;;;;;3.05;1.48;;;14.20;72.50;;;;;;5070783;28;20059;-70
2023/05/30 09:08:09;;;;;;;5.50;1.60;;;14.20;72.40;;;;;;5068313;28;20104;-69
2023/05/30 09:10:41;;;;;;;2.35;1.65;;;14.20;72.10;;;;;;5034893;28;20044;-70
2023/05/30 09:13:07;;;;;;;4.15;1.83;;;14.10;72.30;;;;;;5030639;28;20140;-70
2023/05/30 09:15:32;;;;;;;1.92;1.33;;;14.20;72.10;;;;;;5030634;28;20573;-70
2023/05/30 09:17:58;;;;;;;2.45;1.50;;;14.20;72.10;;;;;;5029445;28;20061;-69
2023/05/30 09:20:28;;;;;;;4.60;1.10;;;14.20;72.00;;;;;;5029669;28;20069;-70
2023/05/30 09:22:54;;;;;;;4.25;1.40;;;14.20;72.10;;;;;;5047481;28;20053;-69
2023/05/30 09:25:19;;;;;;;2.38;0.98;;;14.20;72.10;;;;;;5050151;28;20059;-69
2023/05/30 09:27:50;;;;;;;3.97;1.10;;;14.20;72.00;;;;;;5037901;28;20385;-69
2023/05/30 09:30:17;;;;;;;2.05;1.10;;;14.10;72.00;;;;;;5051058;28;20036;-70
2023/05/30 09:32:59;;;;;;;4.10;1.30;;;14.20;72.10;;;;;;5031172;28;20127;-69
2023/05/30 09:35:25;;;;;;;2.35;1.45;;;14.20;72.10;;;;;;5045110;28;20124;-69
2023/05/30 09:37:51;;;;;;;2.10;1.48;;;14.30;72.20;;;;;;5045703;28;20037;-69
2023/05/30 09:40:16;;;;;;;5.45;1.80;;;14.30;72.20;;;;;;5047623;28;20056;-69
2023/05/30 09:42:53;;;;;;;3.40;1.50;;;14.30;72.40;;;;;;5046316;28;20465;-69
2023/05/30 09:45:21;;;;;;;2.17;1.60;;;14.40;72.40;;;;;;5046227;28;20041;-69
2023/05/30 09:47:48;;;;;;;3.05;1.70;;;14.40;72.20;;;;;;5047268;28;20057;-69
2023/05/30 09:50:16;;;;;;;4.15;1.40;;;14.40;72.10;;;;;;5028894;28;20120;-69
2023/05/30 09:52:43;;;;;;;3.67;1.70;;;14.50;71.80;;;;;;5033981;28;20384;-69
2023/05/30 09:55:11;;;;;;;2.65;1.42;;;14.50;71.60;;;;;;5043459;28;20057;-70
2023/05/30 09:57:39;;;;;;;2.63;1.40;;;14.50;71.40;;;;;;5041241;28;20040;-69
2023/05/30 10:00:18;;;;;;;1.77;1.50;;;14.50;71.50;;;;;;5031852;28;20076;-69
2023/05/30 10:02:52;;;;;;;0.93;0.77;;;14.50;71.50;;;;;;5028641;28;20052;-70
2023/05/30 10:05:19;;;;;;;2.45;0.90;;;14.50;71.60;;;;;;5042080;28;20034;-69
2023/05/30 10:07:47;;;;;;;4.13;0.82;;;14.50;71.50;;;;;;5044749;28;20105;-70
2023/05/30 10:10:14;;;;;;;1.17;0.60;;;14.60;71.50;;;;;;5042391;28;20457;-69
2023/05/30 10:12:41;;;;;;;1.42;0.80;;;14.70;71.30;;;;;;5029282;28;20097;-69
2023/05/30 10:15:07;;;;;;;2.35;0.80;;;14.90;71.20;;;;;;5046659;28;20028;-70
2023/05/30 10:17:35;;;;;;;2.38;0.80;;;14.90;71.20;;;;;;5045416;28;20145;-69
2023/05/30 10:20:06;;;;;;;1.90;0.90;;;15.00;71.70;;;;;;5044547;28;20217;-70
2023/05/30 10:22:39;;;;;;;1.80;0.90;;;15.00;72.20;;;;;;5044893;28;20468;-70
2023/05/30 10:25:06;;;;;;;0.85;0.75;;;15.20;72.10;;;;;;5045199;28;20503;-70
2023/05/30 10:27:37;;;;;;;1.17;0.70;;;15.60;71.70;;;;;;5042697;28;20036;-69
2023/05/30 10:30:07;;;;;;;1.73;0.80;;;15.80;70.90;;;;;;5046950;28;20076;-68
2023/05/30 10:32:36;;;;;;;1.30;0.80;;;15.80;70.30;;;;;;5040806;28;20933;-69
2023/05/30 10:35:20;;;;;;;2.38;1.00;;;15.70;70.00;;;;;;5043194;28;20140;-70
2023/05/30 10:37:47;;;;;;;1.25;0.80;;;15.60;69.60;;;;;;5040904;28;20025;-70
2023/05/30 10:40:41;;;;;;;1.35;0.95;;;15.40;70.00;;;;;;5044540;28;20048;-70
2023/05/30 10:43:43;;;;;;;0.90;0.75;;;15.40;68.80;;;;;;5036887;28;20151;-69
2023/05/30 10:46:20;;;;;;;1.23;0.80;;;15.20;69.30;;;;;;5043869;28;20053;-71
2023/05/30 10:48:51;;;;;;;0.80;0.80;;;15.10;69.90;;;;;;5027386;28;20049;-70
2023/05/30 10:51:17;;;;;;;3.45;1.10;;;15.00;69.90;;;;;;5032780;28;20060;-70
2023/05/30 10:53:44;;;;;;;1.80;0.95;;;14.80;69.90;;;;;;5043517;28;20032;-69
2023/05/30 10:56:29;;;;;;;1.10;0.82;;;14.80;69.80;;;;;;5039614;28;20037;-70
2023/05/30 10:58:55;;;;;;;1.73;0.90;;;14.80;69.50;;;;;;5026700;28;20045;-69
2023/05/30 11:01:31;;;;;;;2.63;1.38;;;14.80;69.70;;;;;;5045225;28;20083;-70
2023/05/30 11:04:04;;;;;;;1.30;0.82;;;14.80;69.60;;;;;;5038182;28;20179;-68
2023/05/30 11:06:35;;;;;;;1.55;0.88;;;14.80;69.30;;;;;;5040655;28;20094;-71
2023/05/30 11:09:12;;;;;;;2.67;1.30;;;14.80;69.30;;;;;;5031291;28;20124;-70
2023/05/30 11:11:53;;;;;;;2.22;0.98;;;14.90;68.80;;;;;;5026980;28;20060;-71
2023/05/30 11:14:24;;;;;;;0.93;0.80;;;14.90;68.90;;;;;;5013727;28;20140;-70
2023/05/30 11:17:04;;;;;;;2.05;1.17;;;15.10;69.10;;;;;;5022606;28;20333;-70
2023/05/30 11:19:47;;;;;;;2.03;1.23;;;15.30;68.50;;;;;;5050156;28;20052;-70
2023/05/30 11:22:13;;;;;;;1.90;1.30;;;15.40;67.70;;;;;;5033929;28;20212;-70
2023/05/30 11:24:40;;;;;;;2.22;1.10;;;15.50;67.90;;;;;;5046638;28;20464;-69
2023/05/30 11:27:10;;;;;;;2.90;1.33;;;15.50;67.40;;;;;;5045568;28;20033;-70
2023/05/30 11:29:49;;;;;;;;;;;15.60;66.70;;;;;;5051150;28;20037;-69
2023/05/30 11:32:20;;;;;;;4.40;1.20;;;15.40;65.10;;;;;;5042379;28;20032;-69
2023/05/30 11:34:56;;;;;;;2.47;0.98;;;15.50;66.90;;;;;;5050911;28;20052;-69
2023/05/30 11:37:22;;;;;;;3.10;1.25;;;15.50;67.00;;;;;;5050014;28;20033;-70
2023/05/30 11:39:48;;;;;;;3.50;1.02;;;15.50;66.60;;;;;;5032001;28;20142;-69
2023/05/30 11:42:13;;;;;;;2.13;1.02;;;15.60;66.40;;;;;;5045620;28;20072;-70
2023/05/30 11:44:41;;;;;;;1.65;1.10;;;15.50;66.20;;;;;;5038134;28;20037;-70
2023/05/30 11:47:09;;;;;;;3.08;1.50;;;15.60;66.00;;;;;;5051301;28;20554;-68
2023/05/30 11:49:35;;;;;;;3.47;1.38;;;15.60;66.00;;;;;;5047089;28;20037;-70
2023/05/30 11:52:01;;;;;;;2.08;1.15;;;15.70;65.90;;;;;;5040466;28;20600;-70
2023/05/30 11:54:27;;;;;;;2.15;1.00;;;15.80;65.70;;;;;;5045509;28;20068;-70
2023/05/30 11:56:55;;;;;;;2.70;1.20;;;16.00;65.20;;;;;;5039881;28;20517;-69
2023/05/30 11:59:22;;;;;;;4.53;1.08;;;16.10;64.30;;;;;;5051005;28;20480;-69
2023/05/30 12:01:58;;;;;;;2.78;1.20;;;16.20;64.20;;;;;;5043144;28;20045;-70
2023/05/30 12:04:32;;;;;;;3.03;1.17;;;16.30;63.50;;;;;;5051749;28;20068;-69
2023/05/30 12:07:00;;;;;;;2.63;1.27;;;16.40;63.00;;;;;;5046746;28;20033;-70
2023/05/30 12:09:26;;;;;;;2.42;1.15;;;16.50;63.20;;;;;;5038217;28;20041;-71
2023/05/30 12:11:58;;;;;;;3.00;1.15;;;16.50;63.20;;;;;;5045543;28;20363;-69
2023/05/30 12:14:37;;;;;;;1.67;1.10;;;16.50;62.40;;;;;;5030515;28;20041;-70
2023/05/30 12:17:17;;;;;;;2.08;1.00;;;16.40;62.80;;;;;;5029556;28;20489;-74
2023/05/30 12:19:44;;;;;;;1.45;1.00;;;16.40;62.40;;;;;;5045903;28;20433;-70
2023/05/30 12:22:15;;;;;;;2.10;0.95;;;16.40;63.00;;;;;;5039490;28;20038;-69
2023/05/30 12:24:41;;;;;;;1.95;1.42;;;16.50;62.80;;;;;;5043532;28;20123;-68
2023/05/30 12:27:23;;;;;;;1.50;1.08;;;16.60;62.50;;;;;;5045411;28;20029;-69
2023/05/30 12:29:49;;;;;;;1.70;0.90;;;16.70;62.30;;;;;;5047128;28;20045;-70
2023/05/30 12:32:23;;;;;;;1.13;0.82;;;16.80;62.10;;;;;;5044885;28;20411;-68
2023/05/30 12:34:49;;;;;;;4.82;1.17;;;16.80;61.20;;;;;;5028095;28;20476;-69
2023/05/30 12:37:16;;;;;;;1.20;0.90;;;17.00;61.50;;;;;;5043923;28;20044;-68
2023/05/30 12:39:53;;;;;;;1.90;1.10;;;17.00;61.40;;;;;;5050973;28;20128;-69
2023/05/30 12:42:23;;;;;;;2.13;0.85;;;17.00;60.70;;;;;;5048029;28;20562;-70
2023/05/30 12:44:51;;;;;;;2.08;1.13;;;17.10;61.10;;;;;;5049559;28;20045;-69
2023/05/30 12:47:16;;;;;;;1.67;0.90;;;17.20;61.10;;;;;;5048253;28;20053;-74
2023/05/30 12:49:44;;;;;;;1.95;1.00;;;17.30;61.00;;;;;;5047472;28;20086;-69